Quad City International Airport (MLI)


Airport Diagram
Current Weather/Forecast (MVFR Conditions)
METAR KMLI 252252Z 29011KT 10SM OVC021 01/M03 A2993 RMK AO2 SLP141 T00111028
TAF KMLI 251720Z 2518/2618 28015KT 6SM BR OVC012 FM260600 27009KT 5SM BR OVC015 FM261400 26004KT 5SM BR SCT007 OVC010

All Charts
General
Chart Name Download
AIRPORT DIAGRAM
TAKEOFF MINIMUMS
ALTERNATE MINIMUMS
HOT SPOT

Approaches
Chart Name Download
ILS OR LOC RWY 09
ILS OR LOC RWY 27
RNAV (GPS) RWY 09
RNAV (GPS) RWY 13
RNAV (GPS) RWY 27
RNAV (GPS) RWY 31